Time;durP1;ratioP1;P1;durP2;ratioP2;P2;SDS_P1;SDS_P2;PMS_P1;PMS_P2;Temp;Humidity;BMP_temperature;BMP_pressure;BME280_temperature;BME280_humidity;BME280_pressure;Samples;Min_cycle;Max_cycle;Signal;HPM_P1;HPM_P2
2021/06/19 00:01:29;;;;;;;8.40;5.32;;;;;;;19.20;65.74;93850.69;5095043;28;20028;-74
2021/06/19 00:03:55;;;;;;;10.27;4.63;;;;;;;19.21;65.80;93850.31;5096130;28;20028;-74
2021/06/19 00:06:21;;;;;;;10.48;4.97;;;;;;;19.18;65.96;93850.25;5107225;28;20480;-74
2021/06/19 00:08:46;;;;;;;9.63;5.35;;;;;;;19.13;66.37;93837.88;5096293;28;20028;-73
2021/06/19 00:11:12;;;;;;;9.35;4.45;;;;;;;19.12;66.17;93846.31;5095977;28;20460;-73
2021/06/19 00:13:37;;;;;;;7.05;4.30;;;;;;;19.13;65.97;93845.16;5094759;28;20173;-73
2021/06/19 00:16:05;;;;;;;9.95;5.25;;;;;;;19.12;65.86;93832.81;5096108;28;20035;-73
2021/06/19 00:18:30;;;;;;;10.85;5.15;;;;;;;19.11;65.81;93840.16;5096350;28;20024;-74
2021/06/19 00:20:55;;;;;;;11.43;5.88;;;;;;;19.10;65.81;93832.41;5096061;28;20543;-74
2021/06/19 00:23:21;;;;;;;10.90;4.65;;;;;;;19.12;65.52;93836.28;5108371;27;20027;-74
2021/06/19 00:25:46;;;;;;;11.13;4.85;;;;;;;19.13;65.72;93832.47;5116543;27;20055;-74
2021/06/19 00:28:12;;;;;;;8.65;4.70;;;;;;;19.13;65.47;93834.38;5116245;27;20486;-74
2021/06/19 00:30:37;;;;;;;9.65;5.13;;;;;;;19.10;65.35;93838.59;5114829;27;20016;-74
2021/06/19 00:33:03;;;;;;;5.65;4.47;;;;;;;19.03;65.51;93838.47;5113129;28;20608;-74
2021/06/19 00:35:28;;;;;;;11.73;4.78;;;;;;;19.06;65.41;93840.47;5113072;28;20098;-74
2021/06/19 00:37:54;;;;;;;6.43;4.45;;;;;;;19.03;65.33;93841.97;5113241;28;20390;-73
2021/06/19 00:40:20;;;;;;;8.95;5.35;;;;;;;19.04;65.62;93840.81;5112786;28;20072;-73
2021/06/19 00:43:00;;;;;;;7.60;4.75;;;;;;;19.07;65.41;93827.72;5113278;28;20026;-73
2021/06/19 00:45:29;;;;;;;7.85;4.68;;;;;;;19.04;65.79;93831.94;5111440;28;20024;-73
2021/06/19 00:47:55;;;;;;;5.55;4.32;;;;;;;18.96;65.66;93830.31;5104555;28;20418;-73
2021/06/19 00:50:21;;;;;;;6.10;4.35;;;;;;;18.95;65.98;93824.13;5091134;28;20030;-73
2021/06/19 00:52:47;;;;;;;6.50;5.03;;;;;;;18.96;65.86;93820.28;5098383;28;20106;-73
2021/06/19 00:55:13;;;;;;;8.88;5.07;;;;;;;18.95;66.42;93821.44;5112820;28;20107;-73
2021/06/19 00:57:39;;;;;;;8.07;4.78;;;;;;;18.93;66.64;93829.13;5112690;28;20520;-73
2021/06/19 01:00:08;;;;;;;8.30;4.65;;;;;;;18.94;66.52;93825.25;5110697;28;20035;-74
2021/06/19 01:02:34;;;;;;;5.20;4.25;;;;;;;18.88;66.47;93826.72;5090998;28;20034;-74
2021/06/19 01:05:00;;;;;;;10.27;4.40;;;;;;;18.86;66.35;93810.13;5092415;28;20745;-74
2021/06/19 01:07:25;;;;;;;6.50;4.57;;;;;;;18.82;66.73;93815.47;5092087;28;20030;-74
2021/06/19 01:09:51;;;;;;;9.45;4.65;;;;;;;18.76;67.70;93808.03;5092268;28;20036;-74
2021/06/19 01:12:23;;;;;;;9.00;4.80;;;;;;;18.65;67.14;93808.66;5090462;28;20051;-74
2021/06/19 01:14:55;;;;;;;10.95;4.45;;;;;;;18.70;66.81;93806.78;5092077;28;20024;-73
2021/06/19 01:17:22;;;;;;;6.15;3.95;;;;;;;18.68;66.49;93800.97;5091894;28;20035;-73
2021/06/19 01:20:00;;;;;;;4.90;3.80;;;;;;;18.68;66.64;93798.28;5091985;28;20381;-73
2021/06/19 01:22:26;;;;;;;4.78;3.75;;;;;;;18.70;65.89;93796.00;5090521;28;20388;-73
2021/06/19 01:24:51;;;;;;;7.45;3.67;;;;;;;18.72;66.27;93796.41;5091999;28;20084;-74
2021/06/19 01:27:17;;;;;;;4.78;3.15;;;;;;;18.65;65.01;93797.88;5091961;28;20031;-73
2021/06/19 01:29:43;;;;;;;6.18;3.30;;;;;;;18.70;65.07;93804.09;5091416;28;20368;-73
2021/06/19 01:32:08;;;;;;;8.15;3.33;;;;;;;18.71;65.37;93801.03;5091802;28;20027;-73
2021/06/19 01:34:33;;;;;;;8.65;2.70;;;;;;;18.63;64.78;93805.56;5091366;28;20161;-74
2021/06/19 01:36:59;;;;;;;6.72;2.67;;;;;;;18.62;64.46;93804.00;5095549;28;20060;-73
2021/06/19 01:39:24;;;;;;;6.32;2.70;;;;;;;18.63;64.53;93802.09;5111797;28;20095;-73
2021/06/19 01:41:49;;;;;;;4.78;2.70;;;;;;;18.61;64.26;93797.03;5111322;28;20035;-73
2021/06/19 01:44:15;;;;;;;3.95;3.00;;;;;;;18.56;64.67;93807.38;5111661;28;20028;-74
2021/06/19 01:46:42;;;;;;;4.40;2.22;;;;;;;18.51;64.00;93808.47;5127723;27;20038;-74
2021/06/19 01:49:08;;;;;;;4.30;2.20;;;;;;;18.50;64.05;93815.03;5110687;28;20046;-73
2021/06/19 01:51:34;;;;;;;8.10;2.65;;;;;;;18.47;64.68;93823.06;5110247;28;20019;-73
2021/06/19 01:54:00;;;;;;;4.18;2.50;;;;;;;18.35;65.39;93810.56;5127332;27;20475;-74
2021/06/19 01:56:25;;;;;;;4.72;2.60;;;;;;;18.29;66.51;93820.09;5110373;28;20194;-74
2021/06/19 01:58:51;;;;;;;3.53;2.58;;;;;;;18.27;67.06;93817.75;5109915;28;20027;-73
2021/06/19 02:01:18;;;;;;;3.22;2.20;;;;;;;18.13;67.17;93823.69;5110257;28;20046;-74
2021/06/19 02:03:45;;;;;;;7.13;2.50;;;;;;;18.11;66.83;93823.28;5091200;28;20470;-73
2021/06/19 02:06:11;;;;;;;4.25;2.08;;;;;;;17.83;67.61;93819.00;5096707;28;20038;-74
2021/06/19 02:08:38;;;;;;;5.53;2.38;;;;;;;17.91;67.81;93821.81;5109954;28;20022;-74
2021/06/19 02:11:05;;;;;;;5.40;2.33;;;;;;;17.83;68.17;93837.09;5111258;28;20038;-74
2021/06/19 02:13:32;;;;;;;3.65;2.15;;;;;;;17.71;68.70;93848.81;5111095;28;20039;-74
2021/06/19 02:15:58;;;;;;;6.00;2.20;;;;;;;17.65;69.94;93836.75;5111126;28;20031;-73
2021/06/19 02:18:25;;;;;;;5.45;2.42;;;;;;;17.52;70.65;93848.81;5109915;28;20019;-73
2021/06/19 02:20:54;;;;;;;7.60;2.97;;;;;;;17.33;72.28;93839.63;5110849;28;20015;-73
2021/06/19 02:23:21;;;;;;;3.85;2.60;;;;;;;17.25;72.97;93843.31;5109770;28;20023;-74
2021/06/19 02:25:51;;;;;;;3.30;2.65;;;;;;;17.16;73.31;93846.22;5108535;28;20027;-74
2021/06/19 02:28:23;;;;;;;4.68;2.95;;;;;;;17.10;73.96;93852.25;5090796;28;20032;-73
2021/06/19 02:30:54;;;;;;;5.28;2.55;;;;;;;17.05;73.90;93856.78;5090443;28;20059;-74
2021/06/19 02:33:19;;;;;;;7.85;2.80;;;;;;;16.96;74.92;93866.22;5089210;28;20032;-74
2021/06/19 02:35:47;;;;;;;4.57;2.50;;;;;;;16.96;75.69;93866.97;5089162;28;20483;-73
2021/06/19 02:38:14;;;;;;;3.83;2.75;;;;;;;16.93;76.09;93861.50;5101669;28;20095;-73
2021/06/19 02:40:39;;;;;;;6.38;3.58;;;;;;;16.85;76.72;93863.28;5109432;28;20124;-74
2021/06/19 02:43:06;;;;;;;2.95;2.47;;;;;;;16.84;76.36;93867.09;5110657;28;20793;-73
2021/06/19 02:45:31;;;;;;;6.75;3.03;;;;;;;16.81;76.72;93863.22;5110843;28;20031;-73
2021/06/19 02:47:58;;;;;;;6.70;3.00;;;;;;;16.68;77.00;93852.88;5110659;28;20031;-73
2021/06/19 02:50:29;;;;;;;7.95;3.25;;;;;;;16.59;76.89;93855.78;5101640;28;20499;-73
2021/06/19 02:52:57;;;;;;;6.57;3.10;;;;;;;16.64;76.52;93853.56;5098213;28;20039;-73
2021/06/19 02:55:26;;;;;;;5.68;2.67;;;;;;;16.69;76.96;93854.44;5088408;28;20482;-73
2021/06/19 02:57:51;;;;;;;4.75;3.08;;;;;;;16.73;76.88;93858.78;5089245;28;20051;-73
2021/06/19 03:00:18;;;;;;;3.80;2.80;;;;;;;16.74;76.79;93843.41;5109024;28;20515;-74
2021/06/19 03:02:44;;;;;;;4.85;2.85;;;;;;;16.78;77.07;93841.56;5099460;28;20089;-74
2021/06/19 03:05:12;;;;;;;5.78;3.30;;;;;;;16.80;76.58;93847.38;5089952;28;20024;-74
2021/06/19 03:07:38;;;;;;;4.65;3.15;;;;;;;16.71;76.54;93836.03;5090213;28;20111;-74
2021/06/19 03:10:06;;;;;;;6.03;2.92;;;;;;;16.80;76.87;93833.94;5088575;28;20509;-74
2021/06/19 03:12:31;;;;;;;6.15;2.97;;;;;;;16.76;76.23;93817.69;5089928;28;20084;-74
2021/06/19 03:14:57;;;;;;;9.27;3.45;;;;;;;16.77;76.49;93821.16;5090104;28;20102;-74
2021/06/19 03:17:22;;;;;;;4.88;3.30;;;;;;;16.84;76.88;93824.03;5088627;28;20434;-74
2021/06/19 03:19:48;;;;;;;7.35;3.25;;;;;;;16.92;77.00;93830.34;5090051;28;20070;-74
2021/06/19 03:22:14;;;;;;;4.97;3.28;;;;;;;16.92;76.85;93830.34;5089703;28;20024;-74
2021/06/19 03:24:41;;;;;;;4.65;3.47;;;;;;;16.94;76.38;93834.25;5090091;28;20089;-74
2021/06/19 03:27:08;;;;;;;4.32;3.25;;;;;;;16.98;77.00;93829.72;5089802;28;20016;-74
2021/06/19 03:29:34;;;;;;;5.40;3.28;;;;;;;16.98;76.99;93837.03;5098115;28;20027;-74
2021/06/19 03:32:00;;;;;;;6.65;2.95;;;;;;;16.98;76.71;93834.34;5110032;28;20035;-74
2021/06/19 03:34:25;;;;;;;4.90;3.38;;;;;;;16.90;76.77;93833.41;5109950;28;20035;-74
2021/06/19 03:36:58;;;;;;;5.03;3.55;;;;;;;16.95;76.91;93835.78;5103075;28;20024;-74
2021/06/19 03:39:23;;;;;;;6.47;3.30;;;;;;;16.96;77.09;93834.69;5109937;28;20057;-73
2021/06/19 03:41:49;;;;;;;5.38;3.60;;;;;;;17.02;77.05;93829.78;5110283;28;20028;-74
2021/06/19 03:44:14;;;;;;;5.43;3.42;;;;;;;17.05;77.24;93829.06;5110151;28;20034;-74
2021/06/19 03:46:40;;;;;;;4.90;3.08;;;;;;;17.14;77.30;93832.34;5108774;28;20159;-74
2021/06/19 03:49:05;;;;;;;6.65;3.63;;;;;;;17.28;77.55;93831.84;5110073;28;20088;-74
2021/06/19 03:51:31;;;;;;;4.38;3.15;;;;;;;17.34;77.97;93832.31;5108368;28;20035;-74
2021/06/19 03:53:56;;;;;;;5.43;4.05;;;;;;;17.38;77.88;93831.28;5109974;28;20114;-74
2021/06/19 03:56:22;;;;;;;5.13;4.07;;;;;;;17.44;77.74;93832.53;5109698;28;20114;-74
2021/06/19 03:58:47;;;;;;;6.45;3.80;;;;;;;17.58;77.50;93834.69;5095506;28;20032;-74
2021/06/19 04:01:13;;;;;;;6.80;3.95;;;;;;;17.65;76.43;93832.13;5089775;28;20024;-74
2021/06/19 04:03:38;;;;;;;6.78;4.10;;;;;;;17.71;76.28;93819.16;5089385;28;20027;-74
2021/06/19 04:06:04;;;;;;;7.38;4.40;;;;;;;17.76;76.13;93829.63;5090872;28;20395;-74
2021/06/19 04:08:29;;;;;;;4.88;3.80;;;;;;;17.84;75.66;93836.72;5091862;28;20372;-74
2021/06/19 04:10:55;;;;;;;8.63;4.18;;;;;;;17.92;76.08;93828.75;5102863;28;20370;-74
2021/06/19 04:13:20;;;;;;;5.57;4.38;;;;;;;17.94;75.14;93831.88;5113700;27;20557;-74
2021/06/19 04:15:46;;;;;;;7.05;3.78;;;;;;;17.95;73.68;93823.44;5113483;28;20031;-74
2021/06/19 04:18:11;;;;;;;8.23;4.55;;;;;;;18.02;74.92;93818.16;5112243;28;20504;-74
2021/06/19 04:20:36;;;;;;;5.20;4.22;;;;;;;18.05;76.17;93816.63;5113143;28;20032;-75
2021/06/19 04:23:02;;;;;;;5.53;4.90;;;;;;;18.07;76.31;93819.75;5113406;28;20019;-74
2021/06/19 04:25:27;;;;;;;6.82;4.57;;;;;;;18.12;75.61;93822.16;5113084;28;20038;-74
2021/06/19 04:27:56;;;;;;;7.03;4.32;;;;;;;18.18;74.75;93815.31;5112010;28;20479;-73
2021/06/19 04:30:23;;;;;;;5.53;4.35;;;;;;;18.27;74.84;93820.44;5112092;28;20463;-74
2021/06/19 04:32:48;;;;;;;5.78;3.95;;;;;;;18.40;71.82;93816.41;5113076;28;20024;-74
2021/06/19 04:35:15;;;;;;;5.20;4.25;;;;;;;18.48;71.94;93814.59;5113212;28;20020;-74
2021/06/19 04:37:42;;;;;;;6.57;4.68;;;;;;;18.48;73.31;93820.00;5111630;28;20051;-73
2021/06/19 04:40:14;;;;;;;4.93;4.13;;;;;;;18.45;73.49;93837.69;5113234;28;20027;-73
2021/06/19 04:42:41;;;;;;;7.07;4.68;;;;;;;18.48;75.55;93830.00;5111662;28;20031;-73
2021/06/19 04:45:09;;;;;;;10.15;5.10;;;;;;;18.49;76.20;93832.34;5111759;28;20053;-73
2021/06/19 04:47:35;;;;;;;7.45;4.75;;;;;;;18.45;76.61;93834.97;5112789;28;20032;-73
2021/06/19 04:50:03;;;;;;;13.15;5.10;;;;;;;18.37;77.02;93846.81;5111784;28;20027;-73
2021/06/19 04:52:33;;;;;;;8.20;5.20;;;;;;;18.34;76.86;93844.06;5111396;28;20510;-73
2021/06/19 04:54:59;;;;;;;8.48;5.05;;;;;;;18.30;76.98;93844.03;5112596;28;20035;-73
2021/06/19 04:57:26;;;;;;;11.15;5.45;;;;;;;18.28;77.26;93843.59;5111481;28;20106;-74
2021/06/19 04:59:51;;;;;;;7.97;5.97;;;;;;;18.24;77.71;93859.72;5112536;28;20543;-74
2021/06/19 05:02:17;;;;;;;7.93;5.45;;;;;;;18.25;78.38;93850.47;5112485;28;20016;-74
2021/06/19 05:04:43;;;;;;;8.73;5.78;;;;;;;18.27;79.04;93857.44;5111080;28;20034;-74
2021/06/19 05:07:09;;;;;;;14.20;5.60;;;;;;;18.27;78.57;93849.34;5111218;28;20023;-73
2021/06/19 05:09:34;;;;;;;11.68;5.63;;;;;;;18.33;78.36;93856.00;5111076;28;20474;-74
2021/06/19 05:12:00;;;;;;;14.02;6.00;;;;;;;18.34;78.15;93855.66;5111874;28;20104;-74
2021/06/19 05:14:25;;;;;;;9.40;5.60;;;;;;;18.31;77.10;93856.34;5112817;28;20382;-74
2021/06/19 05:16:51;;;;;;;7.28;4.90;;;;;;;18.31;77.32;93852.88;5109867;28;20519;-74
2021/06/19 05:19:18;;;;;;;8.88;5.13;;;;;;;18.31;77.27;93852.88;5112033;28;20031;-74
2021/06/19 05:21:44;;;;;;;7.15;5.18;;;;;;;18.22;76.49;93848.53;5110787;28;20038;-74
2021/06/19 05:24:11;;;;;;;5.85;4.60;;;;;;;18.21;76.91;93846.94;5110619;28;20028;-74
2021/06/19 05:26:37;;;;;;;6.88;5.10;;;;;;;18.22;75.79;93856.63;5112220;28;20102;-74
2021/06/19 05:29:02;;;;;;;14.25;4.72;;;;;;;18.22;77.11;93845.81;5111960;28;20467;-74
2021/06/19 05:31:28;;;;;;;6.35;5.43;;;;;;;18.34;77.76;93844.84;5106591;28;20020;-74
2021/06/19 05:33:53;;;;;;;10.18;5.50;;;;;;;18.41;77.51;93846.88;5091622;28;20058;-74
2021/06/19 05:36:18;;;;;;;8.48;5.63;;;;;;;18.51;77.57;93834.69;5091520;28;21435;-74
2021/06/19 05:38:44;;;;;;;7.13;5.45;;;;;;;18.65;76.21;93851.84;5090215;28;20069;-74
2021/06/19 05:41:09;;;;;;;7.60;5.80;;;;;;;18.66;76.72;93858.03;5092529;28;20024;-74
2021/06/19 05:43:35;;;;;;;6.65;5.25;;;;;;;18.68;76.82;93849.56;5111573;28;20026;-74
2021/06/19 05:46:02;;;;;;;6.57;4.97;;;;;;;18.74;74.85;93856.22;5111402;28;20035;-74
2021/06/19 05:48:27;;;;;;;5.95;4.70;;;;;;;18.85;73.34;93859.88;5110060;28;20019;-72
2021/06/19 05:50:53;;;;;;;5.18;4.22;;;;;;;18.97;72.75;93862.34;5100117;28;20480;-71
2021/06/19 05:53:18;;;;;;;6.15;5.05;;;;;;;19.06;72.86;93858.59;5098160;28;20020;-71
2021/06/19 05:55:44;;;;;;;8.70;4.20;;;;;;;19.16;72.42;93858.72;5096890;28;20434;-71
2021/06/19 05:58:09;;;;;;;7.28;3.92;;;;;;;19.30;71.22;93855.44;5096190;28;20024;-71
2021/06/19 06:00:36;;;;;;;5.32;4.10;;;;;;;19.38;68.60;93859.75;5104316;28;20399;-71
2021/06/19 06:03:02;;;;;;;6.15;4.45;;;;;;;19.47;71.22;93856.75;5105656;28;20468;-72
2021/06/19 06:05:28;;;;;;;10.07;4.95;;;;;;;19.49;72.02;93870.69;5097539;28;20031;-71
2021/06/19 06:07:55;;;;;;;9.35;4.90;;;;;;;19.41;72.79;93875.22;5100360;28;20414;-71
2021/06/19 06:10:20;;;;;;;10.20;5.05;;;;;;;19.43;72.77;93870.22;5103558;28;20046;-71
2021/06/19 06:12:46;;;;;;;10.02;5.47;;;;;;;19.42;73.58;93866.00;5101314;28;20048;-72
2021/06/19 06:15:12;;;;;;;10.65;5.82;;;;;;;19.44;73.31;93871.81;5105617;28;20020;-72
2021/06/19 06:17:37;;;;;;;10.15;5.25;;;;;;;19.39;73.02;93871.34;5102754;28;20046;-71
2021/06/19 06:20:05;;;;;;;19.45;5.65;;;;;;;19.31;73.80;93878.59;5103353;28;20031;-71
2021/06/19 06:22:30;;;;;;;8.35;5.38;;;;;;;19.26;74.65;93868.13;5092363;28;20035;-74
2021/06/19 06:24:56;;;;;;;10.02;5.57;;;;;;;19.17;74.52;93870.31;5106118;28;20031;-73
2021/06/19 06:27:21;;;;;;;8.32;5.15;;;;;;;19.09;74.09;93877.56;5101003;28;20122;-73
2021/06/19 06:29:47;;;;;;;5.57;4.50;;;;;;;18.97;74.00;93883.97;5103410;28;20505;-74
2021/06/19 06:32:12;;;;;;;6.80;5.10;;;;;;;18.94;74.29;93883.91;5105017;28;20105;-74
2021/06/19 06:34:38;;;;;;;10.10;5.35;;;;;;;18.83;74.63;93878.38;5096369;28;20039;-73
2021/06/19 06:37:05;;;;;;;6.93;4.78;;;;;;;18.55;76.12;93884.09;5090608;28;20502;-74
2021/06/19 06:39:32;;;;;;;8.00;5.68;;;;;;;18.22;76.91;93877.41;5095165;28;20024;-74
2021/06/19 06:41:59;;;;;;;12.23;5.97;;;;;;;17.99;78.35;93885.50;5096351;28;20038;-74
2021/06/19 06:44:25;;;;;;;7.93;5.85;;;;;;;17.96;78.18;93889.69;5097888;28;20054;-75
2021/06/19 06:46:50;;;;;;;11.23;6.03;;;;;;;17.97;78.16;93893.97;5104502;28;20118;-74
2021/06/19 06:49:17;;;;;;;8.90;5.78;;;;;;;18.02;78.57;93877.47;5096348;28;20024;-75
2021/06/19 06:51:42;;;;;;;12.00;6.63;;;;;;;18.07;78.92;93875.63;5096403;28;20168;-75
2021/06/19 06:54:08;;;;;;;8.45;5.10;;;;;;;18.00;78.19;93876.28;5093646;28;20103;-76
2021/06/19 06:56:33;;;;;;;6.68;5.15;;;;;;;17.87;78.31;93875.69;5103173;28;20035;-76
2021/06/19 06:58:58;;;;;;;6.90;4.72;;;;;;;17.81;78.19;93875.16;5121800;27;20032;-76
2021/06/19 07:01:25;;;;;;;8.60;5.13;;;;;;;17.81;78.26;93872.47;5096268;28;20433;-76
2021/06/19 07:03:55;;;;;;;10.20;4.90;;;;;;;17.91;78.50;93868.44;5101808;28;20147;-75
2021/06/19 07:06:20;;;;;;;9.75;5.05;;;;;;;18.06;77.59;93864.06;5103127;28;20035;-76
2021/06/19 07:08:45;;;;;;;8.73;6.13;;;;;;;18.27;78.76;93868.25;5101850;28;20390;-73
2021/06/19 07:11:11;;;;;;;7.25;4.07;;;;;;;18.47;77.54;93863.53;5100417;28;20035;-73
2021/06/19 07:13:36;;;;;;;9.18;5.72;;;;;;;18.67;77.94;93864.22;5100082;28;20517;-73
2021/06/19 07:16:01;;;;;;;8.48;5.63;;;;;;;18.84;77.36;93855.59;5103195;28;20127;-73
2021/06/19 07:18:27;;;;;;;7.38;4.90;;;;;;;18.98;76.41;93857.72;5096282;28;20027;-75
2021/06/19 07:20:52;;;;;;;6.28;4.55;;;;;;;19.15;75.71;93848.28;5097617;28;20030;-74
2021/06/19 07:23:17;;;;;;;6.72;4.70;;;;;;;19.19;75.64;93846.41;5096367;28;20016;-74
2021/06/19 07:25:43;;;;;;;7.57;4.35;;;;;;;19.28;73.77;93852.31;5097763;28;20434;-75
2021/06/19 07:28:08;;;;;;;7.70;4.55;;;;;;;19.36;73.50;93842.38;5108073;28;20031;-73
2021/06/19 07:30:34;;;;;;;8.45;4.95;;;;;;;19.50;73.19;93850.63;5103462;28;20097;-75
2021/06/19 07:32:59;;;;;;;6.95;4.90;;;;;;;19.59;72.64;93842.22;5097004;28;20111;-75
2021/06/19 07:35:25;;;;;;;4.90;3.67;;;;;;;19.60;68.84;93843.75;5104822;28;20020;-74
2021/06/19 07:37:50;;;;;;;5.60;3.60;;;;;;;19.65;68.06;93835.34;5107907;28;20023;-74
2021/06/19 07:40:16;;;;;;;6.85;4.45;;;;;;;19.66;71.39;93842.28;5112465;28;20027;-74
2021/06/19 07:42:43;;;;;;;6.40;4.13;;;;;;;19.78;70.76;93844.78;5114046;28;20019;-74
2021/06/19 07:45:09;;;;;;;7.07;5.07;;;;;;;19.84;69.42;93848.69;5101929;28;20483;-74
2021/06/19 07:47:35;;;;;;;5.75;3.58;;;;;;;19.92;68.12;93843.34;5109132;28;20027;-74
2021/06/19 07:50:01;;;;;;;6.50;3.83;;;;;;;19.94;70.20;93838.34;5093456;28;20027;-74
2021/06/19 07:52:26;;;;;;;5.80;4.03;;;;;;;20.06;72.38;93832.66;5094653;28;20023;-74
2021/06/19 07:54:52;;;;;;;5.40;4.00;;;;;;;20.06;71.05;93826.47;5106240;28;20051;-74
2021/06/19 07:57:17;;;;;;;6.05;4.18;;;;;;;20.17;71.99;93828.13;5113600;27;20038;-74
2021/06/19 07:59:43;;;;;;;7.28;4.40;;;;;;;20.29;71.10;93831.66;5110784;28;20031;-74
2021/06/19 08:02:08;;;;;;;5.97;3.92;;;;;;;20.47;69.63;93827.16;5095540;28;20027;-74
2021/06/19 08:04:34;;;;;;;10.50;4.78;;;;;;;20.62;70.78;93826.13;5109258;28;22180;-73
2021/06/19 08:07:01;;;;;;;4.75;3.70;;;;;;;20.72;67.55;93821.94;5102024;28;20055;-73
2021/06/19 08:09:26;;;;;;;4.78;3.63;;;;;;;20.78;68.31;93816.94;5113568;28;20384;-73
2021/06/19 08:11:52;;;;;;;5.50;3.92;;;;;;;20.93;68.30;93820.50;5094543;28;20105;-73
2021/06/19 08:14:18;;;;;;;5.72;3.90;;;;;;;21.09;66.27;93820.19;5094320;28;20075;-73
2021/06/19 08:16:48;;;;;;;7.90;3.70;;;;;;;21.26;65.13;93824.13;5098483;28;20024;-73
2021/06/19 08:19:14;;;;;;;4.85;3.30;;;;;;;21.48;66.92;93825.00;5093046;28;20568;-73
2021/06/19 08:21:40;;;;;;;6.78;3.70;;;;;;;21.58;63.16;93816.91;5103495;28;20081;-73
2021/06/19 08:24:06;;;;;;;7.40;3.90;;;;;;;21.82;64.46;93809.97;5099954;28;20095;-73
2021/06/19 08:26:31;;;;;;;5.38;3.30;;;;;;;21.95;61.78;93823.16;5095296;28;20028;-73
2021/06/19 08:28:57;;;;;;;7.05;3.53;;;;;;;22.16;64.00;93820.44;5101213;28;20089;-73
2021/06/19 08:31:22;;;;;;;6.30;3.42;;;;;;;22.30;62.51;93813.50;5107446;28;20020;-73
2021/06/19 08:33:47;;;;;;;5.50;3.08;;;;;;;22.33;60.14;93812.75;5113013;28;20019;-73
2021/06/19 08:36:13;;;;;;;5.90;3.58;;;;;;;22.39;60.68;93806.53;5100105;28;20471;-73
2021/06/19 08:38:38;;;;;;;5.40;3.70;;;;;;;22.47;63.06;93814.66;5111673;28;20035;-73
2021/06/19 08:41:08;;;;;;;5.50;3.30;;;;;;;22.49;59.64;93809.59;5094612;28;20024;-73
2021/06/19 08:43:41;;;;;;;5.00;3.45;;;;;;;22.54;62.17;93806.50;5099747;28;20027;-73
2021/06/19 08:46:09;;;;;;;6.65;3.80;;;;;;;22.46;61.40;93805.75;5098090;28;20036;-73
2021/06/19 08:48:36;;;;;;;7.38;3.10;;;;;;;22.42;60.28;93804.97;5095091;28;20028;-74
2021/06/19 08:51:02;;;;;;;5.13;3.53;;;;;;;22.27;62.41;93801.50;5104363;28;20056;-74
2021/06/19 08:53:28;;;;;;;5.18;3.08;;;;;;;22.19;60.09;93803.41;5099124;28;20136;-74
2021/06/19 08:55:53;;;;;;;7.95;3.38;;;;;;;22.12;60.30;93802.63;5096832;28;20020;-74
2021/06/19 08:58:19;;;;;;;4.15;2.83;;;;;;;22.13;60.75;93801.47;5111443;28;20039;-73
2021/06/19 09:00:45;;;;;;;5.88;3.10;;;;;;;22.08;59.71;93796.41;5107860;28;20084;-74
2021/06/19 09:03:26;;;;;;;4.75;3.47;;;;;;;22.08;60.62;93791.00;5093467;28;20530;-73
2021/06/19 09:06:17;;;;;;;5.80;3.42;;;;;;;22.00;59.66;93795.63;5079144;28;20491;-74
2021/06/19 09:09:01;;;;;;;4.13;3.20;;;;;;;22.00;60.01;93784.78;5105375;28;20019;-74
2021/06/19 09:11:29;;;;;;;5.82;3.85;;;;;;;21.96;60.31;93792.13;5112697;28;20527;-74
2021/06/19 09:14:07;;;;;;;5.57;3.63;;;;;;;22.08;60.96;93791.00;5102650;27;20419;-78
2021/06/19 09:16:34;;;;;;;5.20;3.63;;;;;;;22.19;58.75;93797.97;5097548;28;20030;-76
2021/06/19 09:19:00;;;;;;;7.32;3.70;;;;;;;22.30;58.39;93789.06;5100213;28;20050;-77
2021/06/19 09:21:28;;;;;;;5.25;3.85;;;;;;;22.37;59.69;93783.66;5107274;28;20031;-76
2021/06/19 09:23:54;;;;;;;5.72;3.30;;;;;;;22.51;56.57;93780.13;5094909;28;20019;-78
2021/06/19 09:26:25;;;;;;;6.45;3.70;;;;;;;22.59;56.72;93785.16;5110273;28;20569;-83
2021/06/19 09:29:05;;;;;;;8.45;3.88;;;;;;;22.68;56.41;93784.75;5106441;28;20031;-84
2021/06/19 09:31:41;;;;;;;9.35;3.80;;;;;;;22.72;56.32;93790.94;5104485;28;20031;-83
2021/06/19 09:34:18;;;;;;;10.02;3.97;;;;;;;22.78;58.98;93796.75;5089968;28;20028;-83
2021/06/19 09:37:08;;;;;;;5.55;3.70;;;;;;;22.82;59.34;93792.09;5105507;28;20026;-82
2021/06/19 09:39:35;;;;;;;5.03;3.60;;;;;;;22.82;56.64;93778.50;5107659;28;20490;-82
2021/06/19 09:42:03;;;;;;;5.18;3.65;;;;;;;22.79;57.08;93787.44;5095945;28;20161;-82
2021/06/19 09:44:33;;;;;;;7.68;3.60;;;;;;;22.70;56.36;93776.97;5111530;28;20019;-83
2021/06/19 09:46:59;;;;;;;7.35;3.53;;;;;;;22.73;59.36;93780.84;5098268;28;20059;-81
2021/06/19 09:49:36;;;;;;;5.47;3.28;;;;;;;22.74;59.42;93783.19;5096020;28;20105;-82
2021/06/19 09:52:02;;;;;;;4.93;3.35;;;;;;;22.76;60.29;93786.28;5102263;28;20024;-83
2021/06/19 09:54:28;;;;;;;5.05;3.50;;;;;;;22.44;61.11;93792.53;5098057;28;20028;-82
2021/06/19 09:57:01;;;;;;;5.70;3.50;;;;;;;21.76;64.55;93792.53;5105727;28;20024;-82
2021/06/19 09:59:35;;;;;;;6.68;3.85;;;;;;;21.35;66.66;93798.22;5100815;28;20045;-82
2021/06/19 10:02:03;;;;;;;7.15;3.95;;;;;;;21.18;66.92;93785.38;5106246;28;20406;-83
2021/06/19 10:04:30;;;;;;;6.22;3.72;;;;;;;20.98;69.21;93777.56;5095242;28;20028;-81
2021/06/19 10:06:57;;;;;;;5.00;3.65;;;;;;;20.94;68.07;93776.75;5100119;28;20031;-82
2021/06/19 10:09:22;;;;;;;5.47;4.03;;;;;;;20.92;68.32;93770.19;5109898;28;20033;-82
2021/06/19 10:11:50;;;;;;;6.47;4.10;;;;;;;20.94;69.63;93776.00;5099841;28;20039;-81
2021/06/19 10:14:19;;;;;;;5.40;3.85;;;;;;;20.84;68.50;93774.78;5109810;28;20036;-81
2021/06/19 10:16:55;;;;;;;9.70;3.95;;;;;;;20.85;68.80;93765.50;5100312;28;20030;-82
2021/06/19 10:19:25;;;;;;;7.53;3.55;;;;;;;20.94;69.79;93768.63;5097512;28;20057;-81
2021/06/19 10:21:54;;;;;;;5.63;3.50;;;;;;;20.99;67.88;93756.69;5097105;28;20032;-82
2021/06/19 10:24:21;;;;;;;11.02;4.82;;;;;;;21.06;69.66;93751.28;5113852;28;20467;-81
2021/06/19 10:26:48;;;;;;;7.20;4.85;;;;;;;21.15;70.63;93746.28;5112830;28;20027;-81
2021/06/19 10:29:14;;;;;;;6.28;3.65;;;;;;;21.33;67.63;93754.47;5107923;28;20027;-81
2021/06/19 10:31:46;;;;;;;7.13;3.38;;;;;;;21.48;64.58;93738.25;5117624;27;20057;-75
2021/06/19 10:34:21;;;;;;;;;;;;;;;21.63;64.57;93740.56;5115640;28;20020;-80
2021/06/19 10:36:47;;;;;;;4.68;3.30;;;;;;;21.80;63.54;93743.72;5117182;28;20295;-80
2021/06/19 10:39:30;;;;;;;7.85;2.88;;;;;;;22.01;63.18;93751.06;5115066;28;20061;-80
2021/06/19 10:41:55;;;;;;;4.43;3.10;;;;;;;22.09;60.00;93735.56;5122921;28;20014;-80
2021/06/19 10:44:49;;;;;;;5.75;1.75;;;;;;;22.33;51.28;93728.59;5104451;28;20024;-83
2021/06/19 10:47:18;;;;;;;4.90;2.00;;;;;;;22.51;50.78;93723.88;5101512;28;20020;-82
2021/06/19 10:49:47;;;;;;;4.43;1.98;;;;;;;22.84;49.70;93724.53;5101415;28;20491;-82
2021/06/19 10:52:31;;;;;;;3.80;2.15;;;;;;;23.07;51.10;93712.44;5110867;28;20077;-82
2021/06/19 10:55:09;;;;;;;4.53;1.88;;;;;;;23.43;56.44;93705.63;5096867;28;20022;-82
2021/06/19 10:57:46;;;;;;;2.38;1.75;;;;;;;23.70;48.12;93707.75;5093172;28;20030;-82
2021/06/19 11:00:47;;;;;;;2.72;1.83;;;;;;;23.89;45.23;93719.31;5109051;28;20024;-82
2021/06/19 11:03:13;;;;;;;5.85;1.60;;;;;;;23.98;45.32;93722.34;5104036;28;20027;-82
2021/06/19 11:08:08;;;;;;;3.53;2.05;;;;;;;24.31;45.48;93720.88;5104429;28;20435;-82
2021/06/19 11:10:52;;;;;;;2.20;1.60;;;;;;;24.12;46.55;93735.84;5100276;28;20024;-82
2021/06/19 11:13:41;;;;;;;3.10;2.22;;;;;;;23.99;47.92;93738.25;5089737;28;20048;-82
2021/06/19 11:16:32;;;;;;;3.15;2.17;;;;;;;23.82;51.94;93739.19;5076967;28;20036;-82
2021/06/19 11:18:58;;;;;;;3.75;2.70;;;;;;;23.65;54.36;93740.84;5096328;28;20034;-82
2021/06/19 11:21:23;;;;;;;6.15;3.08;;;;;;;23.53;55.19;93731.22;5096643;28;20019;-82
2021/06/19 11:24:05;;;;;;;5.57;2.72;;;;;;;23.32;53.45;93740.25;5099833;28;20462;-82
2021/06/19 11:26:53;;;;;;;4.03;2.77;;;;;;;23.08;56.49;93746.59;5094581;28;20062;-82
2021/06/19 11:29:41;;;;;;;5.65;3.30;;;;;;;22.78;58.31;93751.34;5108701;28;20023;-82
2021/06/19 11:32:26;;;;;;;5.25;2.90;;;;;;;22.61;59.73;93744.81;5101107;28;20103;-84
2021/06/19 11:34:56;;;;;;;4.63;3.22;;;;;;;22.40;61.38;93747.56;5108746;28;20016;-83
2021/06/19 11:37:22;;;;;;;5.57;3.60;;;;;;;22.12;62.66;93770.81;5092597;28;20031;-82